createdAt,value
2023-02-09T01:42:12.377Z,-6.30
2023-02-09T01:46:32.671Z,-6.32
2023-02-09T01:49:54.130Z,-6.37
2023-02-09T01:54:00.988Z,-6.43
2023-02-09T02:13:31.206Z,-6.60
2023-02-09T02:29:17.406Z,-6.46
2023-02-09T02:41:17.734Z,-6.52
2023-02-09T02:45:19.771Z,-6.55
2023-02-09T02:49:32.279Z,-6.63
2023-02-09T03:01:23.521Z,-6.69
2023-02-09T03:04:59.947Z,-6.48
2023-02-09T03:13:02.418Z,-6.73
2023-02-09T03:32:02.988Z,-6.19
2023-02-09T03:43:57.703Z,-7.14
2023-02-09T03:47:57.486Z,-7.18
2023-02-09T05:39:49.241Z,-8.30
2023-02-09T05:43:09.447Z,-8.27
2023-02-09T05:46:17.770Z,-8.15
2023-02-09T05:49:25.133Z,-8.08
2023-02-09T05:52:40.413Z,-8.18
2023-02-09T05:55:53.295Z,-8.19
2023-02-09T05:59:02.996Z,-8.20
2023-02-09T06:02:07.712Z,-8.19
2023-02-09T06:05:24.072Z,-8.18
2023-02-09T06:08:31.171Z,-8.15
2023-02-09T06:11:39.750Z,-7.91
2023-02-09T06:14:52.063Z,-7.95
2023-02-09T06:17:59.721Z,-7.79
2023-02-09T06:21:05.163Z,-7.60
2023-02-09T06:24:11.889Z,-7.42
2023-02-09T06:27:19.391Z,-7.38
2023-02-09T06:30:26.999Z,-7.27
2023-02-09T06:33:31.939Z,-6.96
2023-02-09T06:36:36.813Z,-6.84
2023-02-09T06:39:48.955Z,-6.75
2023-02-09T06:42:57.216Z,-6.60
2023-02-09T06:46:07.103Z,-6.36
2023-02-09T06:49:18.843Z,-5.95
2023-02-09T06:52:30.179Z,-5.58
2023-02-09T06:55:34.480Z,-4.85
2023-02-09T06:58:44.096Z,-4.34
2023-02-09T07:02:05.410Z,-3.75
2023-02-09T07:05:13.024Z,-2.99
2023-02-09T07:08:18.144Z,-2.38
2023-02-09T07:11:22.459Z,-2.20
2023-02-09T07:14:27.459Z,-1.41
2023-02-09T07:17:35.056Z,-1.16
2023-02-09T07:20:43.884Z,-0.77
2023-02-09T07:23:59.113Z,0.23
2023-02-09T07:27:03.879Z,0.10
2023-02-09T07:30:09.215Z,0.51
2023-02-09T07:33:30.500Z,-0.16
2023-02-09T07:36:53.028Z,0.65
2023-02-09T07:39:57.843Z,1.34
2023-02-09T07:43:05.563Z,2.43
2023-02-09T07:46:15.673Z,2.42
2023-02-09T07:49:27.246Z,2.94
2023-02-09T07:52:40.026Z,2.74
2023-02-09T07:55:49.000Z,3.50
2023-02-09T07:58:57.042Z,3.31
2023-02-09T08:02:04.178Z,3.80
2023-02-09T08:05:19.533Z,3.59
2023-02-09T08:08:22.254Z,5.04
2023-02-09T08:11:37.028Z,4.01
2023-02-09T08:14:48.622Z,4.49
2023-02-09T08:18:01.194Z,5.08
2023-02-09T08:21:08.327Z,5.51
2023-02-09T08:24:16.267Z,4.20
2023-02-09T08:27:23.314Z,4.61
2023-02-09T08:30:26.271Z,5.09
2023-02-09T08:33:34.855Z,5.59
2023-02-09T08:36:52.960Z,6.24
2023-02-09T08:39:58.971Z,5.86
2023-02-09T08:43:02.111Z,5.35
2023-02-09T08:46:16.636Z,4.48
2023-02-09T08:49:19.665Z,4.01
2023-02-09T08:52:22.196Z,4.57
2023-02-09T08:55:25.415Z,4.99
2023-02-09T08:58:33.539Z,5.30
2023-02-09T09:01:40.518Z,5.26
2023-02-09T09:04:43.046Z,4.74
2023-02-09T09:07:54.915Z,3.37
2023-02-09T09:10:58.051Z,3.30
2023-02-09T09:14:01.997Z,3.32
2023-02-09T09:17:06.012Z,2.54
2023-02-09T09:20:13.229Z,2.40
2023-02-09T09:23:21.255Z,2.40
2023-02-09T09:26:24.309Z,2.74
2023-02-09T09:29:26.907Z,3.59
2023-02-09T09:32:30.671Z,3.31
2023-02-09T09:35:38.629Z,3.54
2023-02-09T09:38:44.533Z,3.85
2023-02-09T09:41:58.452Z,3.48
2023-02-09T09:45:07.431Z,3.33
2023-02-09T09:48:26.190Z,3.94
2023-02-09T09:51:47.797Z,4.81
2023-02-09T09:54:51.087Z,5.13
2023-02-09T09:57:58.403Z,5.08
2023-02-09T10:01:01.165Z,5.32
2023-02-09T10:04:17.826Z,6.07
2023-02-09T10:07:29.552Z,6.65
2023-02-09T10:10:46.813Z,6.57
2023-02-09T10:13:54.452Z,8.25
2023-02-09T10:16:59.662Z,7.79
2023-02-09T10:20:05.469Z,8.48
2023-02-09T10:23:17.942Z,7.76
2023-02-09T10:26:26.909Z,9.69
2023-02-09T10:29:29.662Z,7.69
2023-02-09T10:32:46.779Z,8.27
2023-02-09T10:35:53.987Z,7.48
2023-02-09T10:39:11.793Z,6.83
2023-02-09T10:42:19.168Z,6.84
2023-02-09T10:45:45.390Z,7.01
2023-02-09T10:48:50.935Z,7.57
2023-02-09T10:52:14.209Z,6.89
2023-02-09T10:55:39.753Z,7.17
2023-02-09T10:58:49.362Z,7.28
2023-02-09T11:02:22.070Z,9.13
2023-02-09T11:05:29.725Z,10.22
2023-02-09T11:08:44.214Z,10.86
2023-02-09T11:11:50.315Z,10.72
2023-02-09T11:14:55.691Z,11.51
2023-02-09T11:18:32.003Z,8.84
2023-02-09T11:21:47.828Z,11.13
2023-02-09T11:25:20.818Z,9.52
2023-02-09T11:28:43.432Z,9.05
2023-02-09T11:31:59.012Z,11.47
2023-02-09T11:35:16.547Z,11.55
2023-02-09T11:38:38.620Z,11.21
2023-02-09T11:42:05.811Z,11.11
2023-02-09T11:45:13.448Z,10.97
2023-02-09T11:48:22.675Z,13.01
2023-02-09T11:51:27.032Z,12.73
2023-02-09T11:54:48.010Z,14.41
2023-02-09T11:57:57.252Z,14.50
2023-02-09T12:01:15.925Z,13.97
2023-02-09T12:04:35.670Z,14.45
2023-02-09T12:08:18.602Z,12.84
2023-02-09T12:11:29.852Z,14.07
2023-02-09T12:14:48.008Z,14.98
2023-02-09T12:17:54.132Z,15.08
2023-02-09T12:21:00.121Z,15.59
2023-02-09T12:24:26.453Z,13.70
2023-02-09T12:27:29.037Z,14.66
2023-02-09T12:30:42.328Z,13.15
2023-02-09T12:33:46.326Z,12.01
2023-02-09T12:37:14.416Z,13.05
2023-02-09T12:40:24.180Z,13.31
2023-02-09T12:43:35.154Z,14.77
2023-02-09T12:46:48.825Z,14.76
2023-02-09T12:50:03.251Z,14.10
2023-02-09T12:53:32.086Z,13.80
2023-02-09T12:56:48.800Z,13.04
2023-02-09T13:00:07.095Z,13.76
2023-02-09T13:03:19.113Z,11.01
2023-02-09T13:06:25.483Z,12.67
2023-02-09T13:09:40.410Z,13.26
2023-02-09T13:12:53.135Z,12.71
2023-02-09T13:16:03.546Z,12.80
2023-02-09T13:19:47.644Z,11.20
2023-02-09T13:23:22.477Z,10.77
2023-02-09T13:26:37.031Z,10.72
2023-02-09T13:29:53.816Z,10.94
2023-02-09T13:33:09.101Z,10.98
2023-02-09T13:36:59.015Z,10.00
2023-02-09T13:40:19.150Z,10.34
2023-02-09T13:43:36.920Z,10.39
2023-02-09T13:47:05.543Z,10.44
2023-02-09T13:50:28.316Z,7.32
2023-02-09T13:53:35.083Z,8.04
2023-02-09T13:56:45.594Z,8.40
2023-02-09T13:59:48.532Z,8.73
2023-02-09T14:02:55.444Z,8.75
2023-02-09T14:06:21.373Z,8.64
2023-02-09T14:09:38.525Z,7.04
2023-02-09T14:12:51.708Z,7.42
2023-02-09T14:16:10.131Z,8.32
2023-02-09T14:19:34.004Z,7.33
2023-02-09T14:22:38.945Z,7.15
2023-02-09T14:25:44.872Z,6.89
2023-02-09T14:28:56.219Z,7.51
2023-02-09T14:32:00.609Z,6.91
2023-02-09T14:35:32.636Z,7.29
2023-02-09T14:38:43.776Z,7.57
2023-02-09T14:42:13.740Z,6.99
2023-02-09T14:45:16.412Z,7.10
2023-02-09T14:48:28.632Z,6.33
2023-02-09T14:51:31.567Z,6.24
2023-02-09T14:54:44.904Z,5.83
2023-02-09T14:57:47.836Z,5.45
2023-02-09T15:00:58.306Z,5.01
2023-02-09T15:04:05.589Z,5.09
2023-02-09T15:07:15.419Z,5.24
2023-02-09T15:10:25.471Z,5.17
2023-02-09T15:13:35.167Z,4.55
2023-02-09T15:16:46.916Z,4.17
2023-02-09T15:19:54.569Z,3.50
2023-02-09T15:22:58.352Z,2.95
2023-02-09T15:26:01.604Z,2.33
2023-02-09T15:29:18.851Z,1.92
2023-02-09T15:32:24.187Z,1.42
2023-02-09T15:35:29.639Z,1.10
2023-02-09T15:38:41.518Z,0.82
2023-02-09T15:42:07.021Z,0.54
2023-02-09T15:45:47.347Z,0.22
2023-02-09T15:48:50.134Z,-0.08
2023-02-09T15:51:57.184Z,-0.38
2023-02-09T15:59:22.331Z,-0.82
2023-02-09T16:02:34.374Z,-0.94
2023-02-09T16:05:41.497Z,-1.13
2023-02-09T16:08:53.612Z,-1.32
2023-02-09T16:15:33.547Z,-1.68
2023-02-09T16:18:39.754Z,-1.89
2023-02-09T16:22:10.159Z,-2.07
2023-02-09T16:25:27.953Z,-2.20
2023-02-09T16:28:48.310Z,-2.33
2023-02-09T16:32:13.549Z,-2.48
2023-02-09T16:35:22.710Z,-2.50
2023-02-09T16:38:28.977Z,-2.62
2023-02-09T16:41:57.281Z,-2.74
2023-02-09T16:45:17.381Z,-2.85
2023-02-09T16:48:40.593Z,-2.90
2023-02-09T16:52:19.095Z,-3.04
2023-02-09T16:55:43.773Z,-3.11
2023-02-09T16:58:53.961Z,-3.21
2023-02-09T17:02:19.736Z,-3.29
2023-02-09T17:05:51.453Z,-3.36
2023-02-09T17:09:08.939Z,-3.37
2023-02-09T17:12:55.928Z,-3.48
2023-02-09T17:16:15.867Z,-3.59
2023-02-09T17:19:42.138Z,-3.65
2023-02-09T17:22:58.223Z,-3.68
2023-02-09T17:26:05.048Z,-3.78
2023-02-09T17:29:22.063Z,-3.84
2023-02-09T17:32:46.843Z,-3.91
2023-02-09T17:39:47.563Z,-4.06
2023-02-09T17:43:11.649Z,-4.05
2023-02-09T17:46:26.325Z,-4.15
2023-02-09T17:49:34.622Z,-4.20
2023-02-09T17:52:47.661Z,-4.28
2023-02-09T17:56:23.931Z,-4.35
2023-02-09T18:00:01.661Z,-4.41
2023-02-09T18:03:18.595Z,-4.50
2023-02-09T18:06:57.554Z,-4.53
2023-02-09T18:14:13.205Z,-4.59
2023-02-09T18:17:32.760Z,-4.61
2023-02-09T18:20:50.841Z,-4.63
2023-02-09T18:24:11.114Z,-4.69
2023-02-09T18:27:22.857Z,-4.74
2023-02-09T18:30:41.700Z,-4.70
2023-02-09T18:33:53.864Z,-4.63
2023-02-09T18:37:18.553Z,-4.43
2023-02-09T18:40:45.449Z,-4.50
2023-02-09T18:44:14.119Z,-4.73
2023-02-09T18:47:44.144Z,-4.85
2023-02-09T18:51:06.497Z,-4.94
2023-02-09T18:54:29.868Z,-5.03
2023-02-09T18:57:43.905Z,-5.01
2023-02-09T19:01:01.535Z,-5.00
2023-02-09T19:04:36.203Z,-5.07
2023-02-09T19:07:52.587Z,-5.23
2023-02-09T19:11:09.299Z,-5.27
2023-02-09T19:14:49.068Z,-5.35
2023-02-09T19:18:05.700Z,-5.33
2023-02-09T19:21:29.154Z,-5.37
2023-02-09T19:24:55.404Z,-5.49
2023-02-09T19:28:20.618Z,-5.53
2023-02-09T19:32:28.672Z,-5.47
2023-02-09T19:35:14.086Z,-5.49
2023-02-09T19:42:54.120Z,-5.59
2023-02-09T19:46:10.333Z,-5.69
2023-02-09T19:49:24.764Z,-5.72
2023-02-09T19:53:01.430Z,-5.67
2023-02-09T19:56:32.515Z,-5.73
2023-02-09T20:03:48.443Z,-5.82
2023-02-09T20:07:14.387Z,-5.90
2023-02-09T20:10:40.076Z,-5.82
2023-02-09T20:14:08.552Z,-5.92
2023-02-09T20:20:28.606Z,-5.98
2023-02-09T20:27:33.580Z,-6.19
2023-02-09T20:31:10.197Z,-6.19
2023-02-09T20:34:40.496Z,-6.25
2023-02-09T20:38:12.554Z,-6.30
2023-02-09T20:41:38.677Z,-6.37
2023-02-09T20:45:26.267Z,-6.30
2023-02-09T20:48:49.136Z,-6.36
2023-02-09T20:52:20.740Z,-6.32
2023-02-09T20:55:50.292Z,-6.13
2023-02-09T20:58:59.121Z,-6.12
2023-02-09T21:02:32.025Z,-6.22
2023-02-09T21:06:09.870Z,-6.33
2023-02-09T21:09:25.075Z,-6.34
2023-02-09T21:13:09.142Z,-6.42
2023-02-09T21:16:58.421Z,-6.47
2023-02-09T21:20:43.913Z,-6.47
2023-02-09T21:28:14.720Z,-6.56
2023-02-09T21:31:35.444Z,-6.64
2023-02-09T21:34:46.681Z,-6.75
2023-02-09T21:38:18.000Z,-6.75
2023-02-09T21:41:55.887Z,-6.67
2023-02-09T21:45:21.141Z,-6.70
2023-02-09T21:56:55.501Z,-6.75
2023-02-09T22:00:17.763Z,-6.71
2023-02-09T22:03:49.796Z,-6.78
2023-02-09T22:07:50.802Z,-6.86
2023-02-09T22:12:15.717Z,-6.97
2023-02-09T22:15:12.788Z,-6.93
2023-02-09T22:19:27.163Z,-6.94
2023-02-09T22:26:49.969Z,-7.05
2023-02-09T22:34:08.510Z,-7.06
2023-02-09T22:38:17.213Z,-7.09
2023-02-09T22:42:02.103Z,-7.18
2023-02-09T22:45:11.426Z,-7.14
2023-02-09T22:48:55.705Z,-7.07
2023-02-09T22:52:58.286Z,-6.97
2023-02-09T22:56:55.318Z,-6.93
2023-02-09T23:00:11.429Z,-7.06
2023-02-09T23:04:11.668Z,-6.98
2023-02-09T23:07:52.809Z,-6.95
2023-02-09T23:11:37.163Z,-6.91
2023-02-09T23:15:13.074Z,-7.05
2023-02-09T23:19:02.185Z,-7.15
2023-02-09T23:22:56.764Z,-7.22
2023-02-09T23:26:28.149Z,-7.27
2023-02-09T23:30:34.929Z,-7.33
2023-02-09T23:34:01.767Z,-7.31
2023-02-09T23:37:37.191Z,-7.41
2023-02-09T23:41:49.267Z,-7.39
2023-02-09T23:49:00.803Z,-7.35
2023-02-09T23:56:46.616Z,-7.30
